This is the latest recevied weather packets stored in our database for station/object DH1GAP-13. If no packets are shown the sender has not sent any weather packets the latest 1 day(s).
| Time | Temp. | Humidity | Pressure | Rain* | Wind** | Luminosity | Snow |
|---|---|---|---|---|---|---|---|
| 1778078767 | 12.78° C | 66% | 1017.7 hPa | 1.52 mm | - | - | - |
| 1778078707 | 12.78° C | 66% | 1017.7 hPa | 1.52 mm | - | - | - |
| 1778078647 | 12.78° C | 66% | 1017.7 hPa | 1.52 mm | - | - | - |
| 1778078587 | 12.78° C | 66% | 1017.7 hPa | 1.52 mm | - | - | - |
| 1778078527 | 12.78° C | 66% | 1017.7 hPa | 1.52 mm | - | - | - |
| 1778078467 | 12.78° C | 66% | 1017.7 hPa | 1.52 mm | - | - | - |
| 1778078407 | 12.78° C | 66% | 1017.7 hPa | 1.52 mm | - | - | - |
| 1778078347 | 12.78° C | 66% | 1017.7 hPa | 1.52 mm | - | - | - |
| 1778078227 | 12.78° C | 65% | 1017.7 hPa | 1.52 mm | - | - | - |
| 1778078107 | 12.78° C | 65% | 1017.7 hPa | 1.52 mm | - | - | - |
| 1778078047 | 12.78° C | 65% | 1017.7 hPa | 1.52 mm | - | - | - |
| 1778077987 | 12.78° C | 65% | 1017.5 hPa | 1.02 mm | - | - | - |
| 1778077927 | 12.78° C | 65% | 1017.5 hPa | 1.02 mm | - | - | - |
| 1778077687 | 12.78° C | 65% | 1017.7 hPa | 1.02 mm | - | - | - |
| 1778077567 | 12.78° C | 65% | 1017.9 hPa | 1.02 mm | - | - | - |
| 1778077387 | 12.78° C | 64% | 1017.7 hPa | 1.02 mm | - | - | - |
| 1778076727 | 13.89° C | 63% | 1017.5 hPa | 0.51 mm | - | - | - |
| 1778076367 | 14.44° C | 63% | 1017.2 hPa | 0 mm | - | - | - |
| 1778071446 | 21.11° C | 51% | 1015.4 hPa | 0 mm | - | - | - |
| 1778067786 | 23.33° C | 51% | 1015 hPa | 0 mm | - | - | - |
| 1778066586 | 22.78° C | 53% | 1015.2 hPa | 0 mm | - | - | - |
| 1778066526 | 22.78° C | 53% | 1015.2 hPa | 0 mm | - | - | - |
| 1778066346 | 22.78° C | 53% | 1015.2 hPa | 0 mm | - | - | - |
| 1778066286 | 22.78° C | 53% | 1015.2 hPa | 0 mm | - | - | - |
| 1778066046 | 22.78° C | 53% | 1015.2 hPa | 0 mm | - | - | - |
* Rain latest hour (hover to see other rain measurements)
** Current wind speed in m/s (hover to see current wind gust speed)